LICB/CIY METAR and TAF weather

Enter ICAO airport designator
Station Type Date Time Source
LICB METAR 2022/01/18 06:50 UTC NOAA

LICB 180650Z AUTO 08004KT 9999 NCD 02/02 Q1028


Station Type Date Time Source
LICB Decoded METAR 2022/01/18 06:50 UTC NOAA

Comiso As Usaf , Italy (LICB) 36-56N 014-36E
Jan 18, 2022 - 01:50 AM EST / 2022.01.18 0650 UTC
Wind: from the E (080 degrees) at 5 MPH (4 KT):0
Visibility: greater than 7 mile(s):0
Temperature: 35 F (2 C)
Windchill: 30 F (-1 C):1
Dew Point: 35 F (2 C)
Relative Humidity: 100%
Pressure (altimeter): 30.36 in. Hg (1028 hPa)
ob: LICB 180650Z AUTO 08004KT 9999 NCD 02/02 Q1028
cycle: 7

Station Type Date Time Source
LICB TAF 2022/01/18 06:00 UTC NOAA

TAF LICB 180500Z 1806/1906 03007KT CAVOK

Example: see airport list